Time;durP1;ratioP1;P1;durP2;ratioP2;P2;SDS_P1;SDS_P2;PMS_P1;PMS_P2;Temp;Humidity;BMP_temperature;BMP_pressure;BME280_temperature;BME280_humidity;BME280_pressure;Samples;Min_cycle;Max_cycle;Signal;HPM_P1;HPM_P2
2023/05/17 00:02:25;;;;;;;20.58;4.28;;;9.40;99.90;;;;;;5134665;27;20049;-68
2023/05/17 00:04:52;;;;;;;21.45;4.40;;;9.30;99.90;;;;;;5135166;27;20043;-68
2023/05/17 00:07:18;;;;;;;24.13;4.43;;;9.30;99.90;;;;;;5116078;27;20058;-69
2023/05/17 00:09:44;;;;;;;23.52;4.28;;;9.30;99.90;;;;;;5135134;27;20551;-68
2023/05/17 00:12:10;;;;;;;29.95;5.07;;;9.20;99.90;;;;;;5116079;27;20134;-69
2023/05/17 00:14:35;;;;;;;26.27;4.47;;;9.20;99.90;;;;;;5116728;27;20043;-68
2023/05/17 00:17:01;;;;;;;27.92;5.05;;;9.20;99.90;;;;;;5099570;27;20532;-69
2023/05/17 00:19:27;;;;;;;21.75;4.70;;;9.10;99.90;;;;;;5116199;27;20381;-69
2023/05/17 00:21:52;;;;;;;22.02;4.20;;;9.00;99.90;;;;;;5115572;27;20085;-68
2023/05/17 00:24:18;;;;;;;22.83;4.10;;;9.00;99.90;;;;;;5133997;27;20047;-70
2023/05/17 00:26:44;;;;;;;26.73;4.30;;;9.00;99.90;;;;;;5116462;27;20047;-69
2023/05/17 00:29:10;;;;;;;23.73;4.22;;;9.00;99.90;;;;;;5082156;27;20099;-67
2023/05/17 00:31:36;;;;;;;25.58;4.05;;;9.00;99.90;;;;;;5116439;27;20047;-68
2023/05/17 00:34:02;;;;;;;27.23;5.70;;;8.90;99.90;;;;;;5116216;27;20043;-70
2023/05/17 00:36:28;;;;;;;27.63;4.35;;;9.00;99.90;;;;;;5098803;27;20275;-68
2023/05/17 00:38:54;;;;;;;33.03;5.30;;;8.90;99.90;;;;;;5099132;27;20392;-68
2023/05/17 00:41:19;;;;;;;24.02;3.67;;;8.90;99.90;;;;;;5134010;27;20051;-69
2023/05/17 00:43:45;;;;;;;26.10;4.63;;;9.00;99.90;;;;;;5116089;27;20050;-68
2023/05/17 00:46:11;;;;;;;25.98;3.30;;;9.00;99.90;;;;;;5115533;27;20043;-70
2023/05/17 00:48:37;;;;;;;26.17;4.72;;;8.90;99.90;;;;;;5134494;27;20093;-69
2023/05/17 00:51:03;;;;;;;16.27;3.05;;;9.00;99.90;;;;;;5134167;27;20051;-69
2023/05/17 00:53:29;;;;;;;25.63;3.50;;;8.90;99.90;;;;;;5133593;27;20049;-68
2023/05/17 00:55:55;;;;;;;35.45;5.03;;;8.80;99.90;;;;;;5116193;27;20376;-69
2023/05/17 00:58:22;;;;;;;24.15;3.65;;;8.80;99.90;;;;;;5115282;27;20583;-67
2023/05/17 01:00:49;;;;;;;;;;;8.70;99.90;;;;;;5082771;27;20050;-69
2023/05/17 01:03:15;;;;;;;25.70;3.20;;;8.60;99.90;;;;;;5098414;27;19920;-69
2023/05/17 01:05:41;;;;;;;26.98;3.28;;;8.60;99.90;;;;;;5133838;27;20111;-68
2023/05/17 01:08:07;;;;;;;22.90;2.97;;;8.50;99.90;;;;;;5133787;27;20092;-68
2023/05/17 01:10:47;;;;;;;31.40;3.70;;;8.50;99.90;;;;;;5133490;27;20126;-68
2023/05/17 01:13:55;;;;;;;24.70;3.60;;;8.40;99.90;;;;;;5115244;27;20061;-71
2023/05/17 01:16:35;;;;;;;28.90;3.60;;;8.30;99.90;;;;;;5114327;27;20399;-68
2023/05/17 01:19:37;;;;;;;23.17;2.53;;;8.30;99.90;;;;;;5134057;27;20043;-69
2023/05/17 01:22:14;;;;;;;24.67;2.83;;;8.20;99.90;;;;;;5133735;27;20042;-68
2023/05/17 01:25:10;;;;;;;29.27;3.10;;;8.10;99.90;;;;;;5115492;27;20072;-68
2023/05/17 01:27:39;;;;;;;25.33;2.55;;;8.00;99.90;;;;;;5115024;28;20047;-69
2023/05/17 01:30:08;;;;;;;20.02;3.75;;;8.00;99.90;;;;;;5115446;28;20119;-68
2023/05/17 01:32:34;;;;;;;20.55;2.38;;;8.00;99.90;;;;;;5132889;27;20097;-68
2023/05/17 01:35:03;;;;;;;25.00;3.50;;;7.90;99.90;;;;;;5098086;27;20503;-69
2023/05/17 01:37:29;;;;;;;22.08;3.45;;;7.80;99.90;;;;;;5114476;28;20047;-70
2023/05/17 01:39:55;;;;;;;33.20;2.97;;;7.80;99.90;;;;;;5115175;28;20381;-70
2023/05/17 01:42:31;;;;;;;19.08;1.88;;;7.70;99.90;;;;;;5114884;28;20047;-69
2023/05/17 01:45:19;;;;;;;26.30;3.53;;;7.70;99.90;;;;;;5115113;28;20078;-70
2023/05/17 01:47:55;;;;;;;24.77;3.20;;;7.60;99.90;;;;;;5133174;28;20489;-69
2023/05/17 01:50:27;;;;;;;24.60;3.08;;;7.60;99.90;;;;;;5133109;28;20069;-69
2023/05/17 01:52:59;;;;;;;26.63;2.58;;;7.60;99.90;;;;;;5098135;28;20043;-68
2023/05/17 01:55:45;;;;;;;19.80;2.58;;;7.50;99.90;;;;;;5114787;28;20051;-68
2023/05/17 01:58:12;;;;;;;24.95;2.58;;;7.50;99.90;;;;;;5114955;28;20047;-68
2023/05/17 02:00:40;;;;;;;28.83;2.55;;;7.40;99.90;;;;;;5097834;28;20051;-69
2023/05/17 02:03:06;;;;;;;25.20;3.22;;;7.40;99.90;;;;;;5098416;28;20096;-69
2023/05/17 02:05:31;;;;;;;23.00;2.67;;;7.40;99.90;;;;;;5132794;28;20043;-70
2023/05/17 02:07:57;;;;;;;23.17;2.63;;;7.30;99.90;;;;;;5115169;28;20130;-69
2023/05/17 02:10:23;;;;;;;26.73;3.25;;;7.30;99.90;;;;;;5114594;28;20051;-69
2023/05/17 02:12:49;;;;;;;26.13;2.88;;;7.30;99.90;;;;;;5133021;28;20415;-69
2023/05/17 02:15:15;;;;;;;17.25;2.55;;;7.30;99.90;;;;;;5097938;28;20369;-70
2023/05/17 02:17:41;;;;;;;26.33;2.57;;;7.20;99.90;;;;;;5114478;28;20043;-69
2023/05/17 02:20:09;;;;;;;26.38;2.67;;;7.20;99.90;;;;;;5114930;28;20288;-68
2023/05/17 02:22:35;;;;;;;24.40;2.38;;;7.20;99.90;;;;;;5114538;28;20054;-68
2023/05/17 02:25:01;;;;;;;27.23;3.50;;;7.10;99.90;;;;;;5114853;28;20047;-69
2023/05/17 02:27:27;;;;;;;26.05;2.78;;;7.10;99.90;;;;;;5097398;28;20047;-70
2023/05/17 02:29:52;;;;;;;25.65;3.00;;;7.10;99.90;;;;;;5114900;28;20058;-67
2023/05/17 02:32:18;;;;;;;28.98;3.33;;;7.20;99.90;;;;;;5114667;28;20047;-70
2023/05/17 02:34:44;;;;;;;29.45;3.25;;;7.30;99.90;;;;;;5132781;28;20128;-68
2023/05/17 02:37:10;;;;;;;24.05;2.10;;;7.30;99.90;;;;;;5114641;28;20074;-68
2023/05/17 02:39:35;;;;;;;25.42;3.35;;;7.30;99.90;;;;;;5132447;28;20035;-69
2023/05/17 02:42:01;;;;;;;18.13;2.20;;;7.30;99.90;;;;;;5114505;28;20047;-68
2023/05/17 02:44:27;;;;;;;29.58;2.88;;;7.40;99.90;;;;;;5099030;27;20047;-70
2023/05/17 02:46:52;;;;;;;31.58;2.70;;;7.50;99.90;;;;;;5101354;27;20051;-69
2023/05/17 02:49:18;;;;;;;28.02;2.95;;;7.40;99.90;;;;;;5136811;27;20051;-68
2023/05/17 02:51:44;;;;;;;22.52;2.50;;;7.50;99.90;;;;;;5136121;27;20057;-69
2023/05/17 02:54:10;;;;;;;29.73;3.08;;;7.50;99.90;;;;;;5100969;27;20107;-69
2023/05/17 02:56:35;;;;;;;30.75;3.63;;;7.40;99.90;;;;;;5135757;27;20448;-69
2023/05/17 02:59:01;;;;;;;24.48;2.70;;;7.40;99.90;;;;;;5117794;27;20496;-68
2023/05/17 03:01:27;;;;;;;24.85;3.03;;;7.40;99.90;;;;;;5100740;27;20051;-69
2023/05/17 03:03:53;;;;;;;26.42;2.65;;;7.30;99.90;;;;;;5136291;27;20039;-69
2023/05/17 03:06:18;;;;;;;22.80;2.78;;;7.30;99.90;;;;;;5117986;27;20043;-69
2023/05/17 03:08:44;;;;;;;27.17;2.60;;;7.30;99.90;;;;;;5135605;27;20043;-71
2023/05/17 03:11:10;;;;;;;23.10;3.28;;;7.30;99.90;;;;;;5136137;27;20059;-69
2023/05/17 03:13:36;;;;;;;34.13;2.38;;;7.20;99.90;;;;;;5117606;27;20047;-70
2023/05/17 03:16:02;;;;;;;30.20;2.80;;;7.10;99.90;;;;;;5117889;27;20093;-68
2023/05/17 03:18:28;;;;;;;28.50;4.05;;;7.10;99.90;;;;;;5117860;27;20399;-68
2023/05/17 03:20:54;;;;;;;26.40;2.30;;;7.10;99.90;;;;;;5100712;27;20043;-68
2023/05/17 03:23:20;;;;;;;30.67;4.10;;;7.10;99.90;;;;;;5100769;27;20088;-69
2023/05/17 03:25:46;;;;;;;21.30;2.97;;;7.00;99.90;;;;;;5116905;27;20043;-69
2023/05/17 03:28:12;;;;;;;27.58;2.05;;;7.00;99.90;;;;;;5135882;27;20070;-69
2023/05/17 03:30:38;;;;;;;24.63;2.90;;;6.90;99.90;;;;;;5100368;27;20047;-69
2023/05/17 03:33:03;;;;;;;25.60;1.98;;;6.80;99.90;;;;;;5117551;27;20069;-69
2023/05/17 03:35:29;;;;;;;31.80;3.35;;;6.90;99.90;;;;;;5135581;27;20054;-69
2023/05/17 03:37:56;;;;;;;24.13;2.10;;;6.80;99.90;;;;;;5100152;27;20039;-68
2023/05/17 03:40:21;;;;;;;21.52;2.83;;;6.80;99.90;;;;;;5117173;27;20047;-70
2023/05/17 03:42:47;;;;;;;21.50;2.65;;;6.90;99.90;;;;;;5135206;27;20484;-70
2023/05/17 03:45:14;;;;;;;31.58;2.58;;;6.90;99.90;;;;;;5117595;27;20099;-68
2023/05/17 03:47:41;;;;;;;23.17;2.65;;;6.80;99.90;;;;;;5135110;27;20101;-69
2023/05/17 03:50:08;;;;;;;28.95;3.45;;;6.90;99.90;;;;;;5135313;27;20062;-69
2023/05/17 03:52:34;;;;;;;20.80;2.55;;;6.80;99.90;;;;;;5099696;27;20054;-70
2023/05/17 03:55:00;;;;;;;27.33;3.20;;;6.90;99.90;;;;;;5116811;27;20051;-69
2023/05/17 03:57:25;;;;;;;27.05;3.03;;;7.10;99.90;;;;;;5135187;27;20039;-69
2023/05/17 03:59:51;;;;;;;29.30;2.67;;;7.10;99.90;;;;;;5134751;27;20131;-69
2023/05/17 04:02:17;;;;;;;23.15;2.97;;;7.10;99.90;;;;;;5116829;27;20086;-69
2023/05/17 04:04:49;;;;;;;18.48;2.05;;;6.90;99.90;;;;;;5134702;27;20128;-69
2023/05/17 04:07:16;;;;;;;21.33;2.00;;;7.00;99.90;;;;;;5116516;27;20047;-69
2023/05/17 04:09:42;;;;;;;22.60;2.13;;;6.90;99.90;;;;;;5116321;27;20047;-69
2023/05/17 04:12:09;;;;;;;18.55;3.65;;;6.90;99.90;;;;;;5134911;27;20127;-67
2023/05/17 04:14:36;;;;;;;19.58;2.70;;;6.90;99.90;;;;;;5099888;27;20047;-68
2023/05/17 04:17:02;;;;;;;22.27;2.50;;;6.90;99.90;;;;;;5134886;27;20043;-70
2023/05/17 04:19:27;;;;;;;25.00;3.00;;;7.00;99.90;;;;;;5099728;27;20392;-68
2023/05/17 04:21:53;;;;;;;26.65;3.10;;;7.00;99.90;;;;;;5134225;27;20047;-70
2023/05/17 04:24:19;;;;;;;14.80;2.13;;;7.00;99.90;;;;;;5116712;27;20049;-68
2023/05/17 04:26:45;;;;;;;20.52;2.55;;;6.90;99.90;;;;;;5134285;27;20126;-69
2023/05/17 04:29:10;;;;;;;20.88;2.53;;;7.00;99.90;;;;;;5099780;27;20047;-69
2023/05/17 04:31:36;;;;;;;23.23;2.55;;;7.00;99.90;;;;;;5116332;27;20047;-68
2023/05/17 04:34:02;;;;;;;22.45;3.10;;;7.00;99.90;;;;;;5115761;27;20047;-69
2023/05/17 04:36:28;;;;;;;21.48;2.47;;;7.10;99.90;;;;;;5099127;27;20093;-69
2023/05/17 04:38:55;;;;;;;24.20;3.05;;;7.20;99.90;;;;;;5115771;27;20111;-69
2023/05/17 04:41:20;;;;;;;19.95;2.20;;;7.20;99.90;;;;;;5116598;27;20045;-69
2023/05/17 04:43:46;;;;;;;20.45;2.60;;;7.40;99.90;;;;;;5133931;27;20531;-69
2023/05/17 04:46:12;;;;;;;29.33;2.72;;;7.50;99.90;;;;;;5134255;27;20480;-68
2023/05/17 04:48:37;;;;;;;21.80;1.95;;;7.70;99.90;;;;;;5115553;27;20400;-68
2023/05/17 04:51:04;;;;;;;25.88;2.90;;;7.80;99.90;;;;;;5115274;27;20100;-68
2023/05/17 04:53:30;;;;;;;21.93;1.90;;;7.90;99.90;;;;;;5116388;27;20171;-68
2023/05/17 04:55:57;;;;;;;21.93;2.23;;;8.10;99.90;;;;;;5133846;27;20039;-69
2023/05/17 04:58:23;;;;;;;21.20;2.35;;;8.30;99.90;;;;;;5116026;27;20047;-68
2023/05/17 05:00:49;;;;;;;23.38;2.40;;;8.40;99.90;;;;;;5098255;27;20091;-70
2023/05/17 05:03:15;;;;;;;26.77;2.33;;;8.50;99.90;;;;;;5115881;27;20399;-69
2023/05/17 05:05:41;;;;;;;26.63;3.95;;;8.50;99.90;;;;;;5115337;27;20121;-69
2023/05/17 05:08:08;;;;;;;24.45;1.88;;;8.60;99.90;;;;;;5133059;27;20043;-69
2023/05/17 05:10:33;;;;;;;;;;;8.50;99.90;;;;;;5134330;27;20043;-69
2023/05/17 05:12:59;;;;;;;16.17;1.93;;;8.40;99.90;;;;;;5133358;27;19920;-69
2023/05/17 05:15:25;;;;;;;24.00;3.10;;;8.40;99.90;;;;;;5115417;27;20085;-69
2023/05/17 05:17:51;;;;;;;16.85;1.92;;;8.40;99.90;;;;;;5114757;27;20080;-69
2023/05/17 05:20:17;;;;;;;18.63;1.88;;;8.40;99.90;;;;;;5133452;27;20513;-69
2023/05/17 05:22:43;;;;;;;24.83;2.67;;;8.30;99.90;;;;;;5115372;27;20395;-69
2023/05/17 05:25:09;;;;;;;13.60;1.92;;;8.40;99.90;;;;;;5115122;27;20047;-69
2023/05/17 05:27:35;;;;;;;25.33;3.50;;;8.40;99.90;;;;;;5115296;28;20043;-69
2023/05/17 05:30:01;;;;;;;14.80;2.50;;;8.50;99.90;;;;;;5133123;27;20061;-69
2023/05/17 05:32:27;;;;;;;17.75;2.47;;;8.70;99.90;;;;;;5114972;27;20130;-70
2023/05/17 05:34:52;;;;;;;23.23;2.17;;;8.70;99.90;;;;;;5114903;28;20467;-70
2023/05/17 05:37:18;;;;;;;14.90;1.83;;;8.80;99.90;;;;;;5115295;28;20043;-71
2023/05/17 05:39:45;;;;;;;9.35;1.30;;;8.90;99.90;;;;;;5115240;28;20067;-70
2023/05/17 05:42:11;;;;;;;14.43;1.92;;;9.00;99.90;;;;;;5133077;28;20043;-70
2023/05/17 05:44:37;;;;;;;17.48;2.42;;;9.10;99.90;;;;;;5133339;28;20095;-70
2023/05/17 05:47:03;;;;;;;15.80;2.00;;;9.20;99.90;;;;;;5132830;28;20450;-69
2023/05/17 05:49:29;;;;;;;16.13;1.75;;;9.20;99.90;;;;;;5132739;27;20124;-70
2023/05/17 05:51:54;;;;;;;13.15;1.60;;;9.20;99.90;;;;;;5133037;28;20165;-71
2023/05/17 05:54:20;;;;;;;16.95;1.52;;;9.30;99.90;;;;;;5115140;28;20058;-68
2023/05/17 05:56:46;;;;;;;11.80;1.90;;;9.40;99.90;;;;;;5133235;28;20050;-70
2023/05/17 05:59:12;;;;;;;19.30;2.03;;;9.50;99.90;;;;;;5132888;28;20395;-69
2023/05/17 06:01:37;;;;;;;15.93;1.73;;;9.40;99.90;;;;;;5098041;28;20499;-69
2023/05/17 06:04:03;;;;;;;16.83;1.70;;;9.50;99.90;;;;;;5097598;28;20108;-69
2023/05/17 06:06:30;;;;;;;13.98;1.65;;;9.60;99.90;;;;;;5133204;28;20035;-68
2023/05/17 06:08:55;;;;;;;20.33;2.03;;;9.70;99.90;;;;;;5114377;28;20122;-70
2023/05/17 06:11:22;;;;;;;14.00;1.63;;;9.80;99.90;;;;;;5115211;28;20152;-70
2023/05/17 06:13:48;;;;;;;10.75;1.00;;;9.80;99.90;;;;;;5133028;28;20543;-69
2023/05/17 06:16:14;;;;;;;13.38;1.30;;;9.80;99.90;;;;;;5114506;28;20066;-71
2023/05/17 06:18:40;;;;;;;14.98;1.50;;;9.70;99.90;;;;;;5133536;27;20039;-68
2023/05/17 06:21:06;;;;;;;14.35;1.15;;;9.70;99.90;;;;;;5136493;27;20047;-69
2023/05/17 06:23:31;;;;;;;18.85;1.60;;;9.50;99.90;;;;;;5118446;27;20120;-70
2023/05/17 06:25:57;;;;;;;13.98;1.27;;;9.60;99.90;;;;;;5084235;27;20079;-69
2023/05/17 06:28:23;;;;;;;9.05;1.10;;;9.50;99.90;;;;;;5101990;27;20100;-68
2023/05/17 06:30:48;;;;;;;16.10;1.00;;;9.50;99.90;;;;;;5118618;27;20452;-69
2023/05/17 06:33:14;;;;;;;10.25;0.80;;;9.60;99.90;;;;;;5117988;27;20047;-69
2023/05/17 06:35:40;;;;;;;13.90;1.08;;;9.70;99.90;;;;;;5101841;27;20066;-70
2023/05/17 06:38:06;;;;;;;11.25;1.30;;;9.80;99.90;;;;;;5100750;27;20130;-69
2023/05/17 06:40:31;;;;;;;15.82;1.10;;;9.80;99.90;;;;;;5118334;27;20039;-70
2023/05/17 06:42:57;;;;;;;10.23;1.10;;;9.90;99.90;;;;;;5136031;27;20043;-67
2023/05/17 06:45:23;;;;;;;12.27;1.50;;;9.80;99.90;;;;;;5136590;27;20057;-69
2023/05/17 06:47:49;;;;;;;13.05;1.00;;;10.00;99.90;;;;;;5136103;27;20499;-69
2023/05/17 06:50:15;;;;;;;13.45;0.95;;;10.10;99.90;;;;;;5117699;27;20055;-69
2023/05/17 06:52:40;;;;;;;8.50;0.88;;;10.20;99.90;;;;;;5136484;27;20388;-69
2023/05/17 06:55:08;;;;;;;12.73;1.30;;;10.50;99.90;;;;;;5135952;27;20047;-70
2023/05/17 06:57:33;;;;;;;14.82;0.85;;;10.50;99.90;;;;;;5136446;27;20399;-68
2023/05/17 06:59:59;;;;;;;9.60;0.80;;;10.70;99.90;;;;;;5135906;27;20069;-69
2023/05/17 07:02:25;;;;;;;14.35;1.00;;;10.70;99.90;;;;;;5067413;27;20043;-70
2023/05/17 07:04:50;;;;;;;9.85;0.95;;;10.70;99.90;;;;;;5136210;27;20045;-69
2023/05/17 07:07:16;;;;;;;9.45;1.00;;;10.80;99.90;;;;;;5116740;27;20138;-69
2023/05/17 07:09:42;;;;;;;10.75;0.90;;;11.00;99.90;;;;;;5136434;27;20068;-69
2023/05/17 07:12:08;;;;;;;10.05;0.88;;;10.90;99.90;;;;;;5117402;27;20043;-68
2023/05/17 07:14:34;;;;;;;11.48;1.00;;;10.90;99.90;;;;;;5135988;27;20092;-69
2023/05/17 07:17:00;;;;;;;9.52;0.70;;;10.70;99.90;;;;;;5116850;27;20039;-69
2023/05/17 07:19:26;;;;;;;14.00;1.30;;;10.70;99.90;;;;;;5136139;27;20114;-68
2023/05/17 07:21:52;;;;;;;14.02;1.17;;;10.40;99.90;;;;;;5117733;27;20046;-69
2023/05/17 07:24:18;;;;;;;17.45;1.00;;;10.40;99.90;;;;;;5083482;27;20123;-70
2023/05/17 07:26:44;;;;;;;10.90;0.77;;;10.30;99.90;;;;;;5100736;27;20085;-68
2023/05/17 07:29:11;;;;;;;10.93;0.68;;;10.60;99.90;;;;;;5117020;27;20051;-69
2023/05/17 07:31:37;;;;;;;9.95;0.68;;;10.60;99.90;;;;;;5135358;27;20090;-69
2023/05/17 07:34:03;;;;;;;9.50;1.50;;;10.90;99.90;;;;;;5135481;27;20071;-69
2023/05/17 07:36:29;;;;;;;10.40;1.15;;;10.80;99.90;;;;;;5135593;27;20039;-69
2023/05/17 07:38:56;;;;;;;17.50;1.20;;;10.80;99.90;;;;;;5135649;27;20047;-69
2023/05/17 07:41:22;;;;;;;12.90;1.13;;;10.80;99.90;;;;;;5099765;27;20051;-70
2023/05/17 07:43:48;;;;;;;13.98;1.30;;;10.90;99.90;;;;;;5135412;27;20103;-69
2023/05/17 07:46:14;;;;;;;9.98;0.85;;;11.20;99.90;;;;;;5116656;27;20070;-69
2023/05/17 07:48:40;;;;;;;15.50;1.48;;;11.40;99.90;;;;;;5135318;27;20547;-68
2023/05/17 07:51:06;;;;;;;11.23;0.82;;;11.50;99.90;;;;;;5082878;27;20373;-70
2023/05/17 07:53:32;;;;;;;17.13;1.20;;;11.70;99.90;;;;;;5135208;27;20089;-70
2023/05/17 07:55:57;;;;;;;18.88;1.25;;;11.70;99.90;;;;;;5116821;27;20047;-70
2023/05/17 07:58:23;;;;;;;15.98;1.30;;;11.60;99.80;;;;;;5099235;27;20632;-70
2023/05/17 08:00:49;;;;;;;13.07;1.00;;;11.90;99.90;;;;;;5116990;27;20040;-70
2023/05/17 08:03:15;;;;;;;16.85;1.80;;;11.90;99.90;;;;;;5116495;27;20047;-69
2023/05/17 08:05:40;;;;;;;13.48;1.23;;;12.10;99.90;;;;;;5135085;27;20524;-69
2023/05/17 08:08:06;;;;;;;14.00;1.00;;;11.90;99.90;;;;;;5099289;27;20039;-70
2023/05/17 08:10:35;;;;;;;14.82;1.02;;;12.10;99.70;;;;;;5099353;27;20400;-69
2023/05/17 08:13:01;;;;;;;16.08;2.00;;;12.10;99.90;;;;;;5134792;27;20047;-70
2023/05/17 08:15:26;;;;;;;13.27;0.90;;;11.70;99.90;;;;;;5082088;27;20066;-71
2023/05/17 08:17:52;;;;;;;13.93;1.10;;;11.40;99.90;;;;;;5134599;27;20051;-69
2023/05/17 08:20:18;;;;;;;15.43;1.33;;;11.50;99.90;;;;;;5116117;27;20106;-70
2023/05/17 08:22:43;;;;;;;11.13;1.27;;;11.60;99.90;;;;;;5116720;27;20086;-68
2023/05/17 08:25:09;;;;;;;13.80;1.50;;;11.50;99.80;;;;;;5134216;27;20038;-70
2023/05/17 08:27:35;;;;;;;14.93;1.67;;;11.60;99.90;;;;;;5116137;27;20468;-68
2023/05/17 08:30:01;;;;;;;10.43;1.20;;;11.50;99.20;;;;;;5115997;27;20091;-70
2023/05/17 08:32:27;;;;;;;11.68;1.25;;;11.50;99.90;;;;;;5134282;27;20138;-69
2023/05/17 08:34:53;;;;;;;12.75;1.08;;;11.40;99.70;;;;;;5134787;27;20054;-71
2023/05/17 08:37:19;;;;;;;12.63;0.90;;;11.60;99.60;;;;;;5133724;27;20471;-69
2023/05/17 08:39:45;;;;;;;9.77;0.75;;;11.50;98.80;;;;;;5134450;27;20039;-71
2023/05/17 08:42:11;;;;;;;10.48;1.20;;;11.60;98.10;;;;;;5133170;27;20050;-69
2023/05/17 08:44:38;;;;;;;17.30;2.08;;;11.60;97.00;;;;;;5115943;27;20043;-72
2023/05/17 08:47:05;;;;;;;16.60;1.35;;;11.70;97.90;;;;;;5115847;27;20531;-69
2023/05/17 08:49:33;;;;;;;8.52;0.60;;;12.00;98.00;;;;;;5111809;28;20059;-68
2023/05/17 08:52:08;;;;;;;8.38;1.02;;;12.20;96.90;;;;;;5112584;28;20573;-70
2023/05/17 08:54:37;;;;;;;12.88;1.20;;;12.20;95.80;;;;;;5113205;28;20104;-69
2023/05/17 08:57:05;;;;;;;14.35;0.90;;;12.20;96.10;;;;;;5112410;28;20401;-72
2023/05/17 08:59:34;;;;;;;9.80;0.85;;;12.60;95.40;;;;;;5112129;28;20294;-69
2023/05/17 09:02:00;;;;;;;22.73;1.65;;;12.70;96.10;;;;;;5113481;27;20121;-69
2023/05/17 09:04:27;;;;;;;12.40;1.10;;;12.50;96.60;;;;;;5111817;28;20043;-68
2023/05/17 09:06:53;;;;;;;16.23;1.55;;;12.60;96.80;;;;;;5095325;28;20056;-69
2023/05/17 09:09:20;;;;;;;11.07;1.00;;;12.20;96.80;;;;;;5112979;28;20051;-70
2023/05/17 09:11:46;;;;;;;11.30;0.82;;;12.60;97.10;;;;;;5112040;28;20485;-70
2023/05/17 09:14:17;;;;;;;9.40;1.30;;;12.70;96.60;;;;;;5112246;28;20051;-69
2023/05/17 09:16:43;;;;;;;11.15;1.08;;;12.70;96.30;;;;;;5113123;28;20476;-69
2023/05/17 09:19:15;;;;;;;13.55;1.60;;;12.80;96.90;;;;;;5113321;28;20055;-69
2023/05/17 09:21:45;;;;;;;14.77;1.20;;;13.00;97.10;;;;;;5113243;28;20073;-69
2023/05/17 09:24:11;;;;;;;12.13;1.05;;;13.10;96.70;;;;;;5111923;28;20382;-70
2023/05/17 09:26:44;;;;;;;12.88;1.33;;;12.80;96.00;;;;;;5111668;28;20049;-70
2023/05/17 09:29:11;;;;;;;11.52;1.15;;;12.40;95.30;;;;;;5111998;28;20040;-68
2023/05/17 09:31:38;;;;;;;10.88;0.95;;;12.20;95.30;;;;;;5094475;28;20054;-68
2023/05/17 09:34:06;;;;;;;13.18;0.93;;;12.30;95.30;;;;;;5112112;28;20040;-70
2023/05/17 09:36:35;;;;;;;12.23;0.98;;;12.40;96.20;;;;;;5111022;28;20126;-69
2023/05/17 09:39:05;;;;;;;7.47;1.05;;;12.80;96.50;;;;;;5112675;28;20136;-69
2023/05/17 09:41:33;;;;;;;9.50;1.08;;;12.80;95.50;;;;;;5112649;28;20047;-68
2023/05/17 09:44:08;;;;;;;7.30;1.00;;;12.30;93.70;;;;;;5111690;28;20077;-69
2023/05/17 09:46:34;;;;;;;7.75;1.05;;;12.60;95.00;;;;;;5111180;28;20568;-70
2023/05/17 09:49:01;;;;;;;11.57;0.90;;;12.50;93.40;;;;;;5122799;28;20054;-69
2023/05/17 09:51:32;;;;;;;5.40;0.88;;;12.80;94.10;;;;;;5114666;28;20051;-71
2023/05/17 09:53:58;;;;;;;11.13;1.13;;;13.30;94.40;;;;;;5100760;27;20047;-70
2023/05/17 09:56:28;;;;;;;11.73;1.00;;;13.40;94.40;;;;;;5137068;27;20043;-69
2023/05/17 09:58:54;;;;;;;14.80;1.50;;;13.40;92.70;;;;;;5137351;27;20570;-69
2023/05/17 10:01:21;;;;;;;7.32;0.85;;;13.60;93.60;;;;;;5118737;27;20130;-69
2023/05/17 10:03:49;;;;;;;7.70;1.10;;;13.40;93.20;;;;;;5119156;27;20449;-69
2023/05/17 10:06:18;;;;;;;8.25;0.88;;;13.30;93.00;;;;;;5101821;27;20043;-70
2023/05/17 10:08:48;;;;;;;15.25;1.23;;;13.70;92.50;;;;;;5102488;27;20545;-68
2023/05/17 10:11:13;;;;;;;10.93;1.17;;;13.30;91.70;;;;;;5119105;27;20122;-69
2023/05/17 10:13:46;;;;;;;10.05;1.10;;;13.40;93.10;;;;;;5118375;27;20522;-71
2023/05/17 10:16:12;;;;;;;10.93;1.23;;;13.30;93.20;;;;;;5137115;27;20043;-70
2023/05/17 10:18:39;;;;;;;8.77;0.98;;;13.50;93.60;;;;;;5118322;27;20058;-71
2023/05/17 10:21:07;;;;;;;8.60;0.85;;;13.50;92.00;;;;;;5119244;27;20484;-69
2023/05/17 10:23:34;;;;;;;10.40;0.95;;;13.90;93.40;;;;;;5136750;27;20039;-69
2023/05/17 10:26:01;;;;;;;9.18;1.00;;;13.70;92.10;;;;;;5101714;27;20047;-68
2023/05/17 10:28:28;;;;;;;5.88;1.00;;;13.80;91.30;;;;;;5136614;27;20047;-70
2023/05/17 10:30:54;;;;;;;;;;;13.70;91.50;;;;;;5119013;27;20422;-69
2023/05/17 10:33:23;;;;;;;12.27;1.07;;;13.70;92.20;;;;;;5118617;27;19919;-68
2023/05/17 10:35:51;;;;;;;12.32;1.98;;;13.70;93.00;;;;;;5118986;27;20046;-71
2023/05/17 10:38:17;;;;;;;12.60;1.10;;;13.40;93.30;;;;;;5118475;27;20450;-70
2023/05/17 10:40:44;;;;;;;12.48;1.27;;;13.60;93.60;;;;;;5101582;27;20042;-70
2023/05/17 10:43:11;;;;;;;15.38;1.50;;;13.70;93.90;;;;;;5136622;27;20086;-70
2023/05/17 10:45:40;;;;;;;12.27;1.20;;;13.90;93.90;;;;;;5118066;27;20073;-69
2023/05/17 10:48:07;;;;;;;15.45;1.10;;;13.60;94.30;;;;;;5136207;27;20515;-69
2023/05/17 10:50:37;;;;;;;14.70;1.35;;;13.80;94.00;;;;;;5136081;27;20488;-70
2023/05/17 10:53:08;;;;;;;8.43;1.20;;;13.80;93.90;;;;;;5101348;27;20043;-71
2023/05/17 10:55:41;;;;;;;13.55;0.98;;;13.70;94.20;;;;;;5136024;27;20045;-69
2023/05/17 10:58:17;;;;;;;13.60;1.20;;;13.70;93.90;;;;;;5118002;27;20392;-69
2023/05/17 11:00:47;;;;;;;10.85;0.95;;;13.30;94.10;;;;;;5116784;27;20062;-70
2023/05/17 11:03:18;;;;;;;12.82;1.50;;;13.10;94.60;;;;;;5101455;27;20126;-70
2023/05/17 11:06:05;;;;;;;10.13;1.20;;;13.20;94.70;;;;;;5117185;27;20085;-69
2023/05/17 11:08:32;;;;;;;10.45;1.00;;;13.40;94.70;;;;;;5116727;27;20043;-71
2023/05/17 11:11:08;;;;;;;8.25;1.05;;;13.90;94.30;;;;;;5117969;27;20054;-70
2023/05/17 11:13:42;;;;;;;9.90;1.02;;;14.00;92.50;;;;;;5135974;27;20142;-69
2023/05/17 11:16:07;;;;;;;11.40;1.23;;;13.90;92.40;;;;;;5100798;27;20047;-69
2023/05/17 11:18:51;;;;;;;10.35;0.85;;;14.10;93.10;;;;;;5117455;27;20088;-71
2023/05/17 11:21:17;;;;;;;9.35;0.80;;;14.10;91.60;;;;;;5117707;27;20419;-69
2023/05/17 11:23:44;;;;;;;7.43;1.13;;;14.10;92.60;;;;;;5135690;27;20118;-67
2023/05/17 11:26:36;;;;;;;9.77;1.38;;;14.10;92.80;;;;;;5135963;27;20086;-70
2023/05/17 11:29:09;;;;;;;9.18;0.82;;;14.30;91.50;;;;;;5117814;27;20434;-69
2023/05/17 11:31:36;;;;;;;8.90;1.00;;;13.80;90.00;;;;;;5134950;27;20047;-71
2023/05/17 11:34:05;;;;;;;11.27;1.02;;;13.90;91.30;;;;;;5135948;27;20392;-71
2023/05/17 11:36:47;;;;;;;7.82;0.93;;;13.60;91.30;;;;;;5116725;27;20148;-72
2023/05/17 11:39:14;;;;;;;8.45;0.73;;;13.50;91.00;;;;;;5135917;27;20132;-69
2023/05/17 11:41:47;;;;;;;;;;;13.50;91.50;;;;;;5117219;27;20051;-70
2023/05/17 11:44:13;;;;;;;8.90;1.02;;;13.40;91.50;;;;;;5118140;27;19926;-69
2023/05/17 11:46:40;;;;;;;11.95;1.20;;;13.40;90.80;;;;;;5135115;27;20039;-71
2023/05/17 11:49:06;;;;;;;;;;;13.90;90.70;;;;;;5117484;27;20058;-70
2023/05/17 11:51:32;;;;;;;5.97;0.90;;;14.40;92.00;;;;;;5135386;27;19927;-79
2023/05/17 11:54:02;;;;;;;9.20;1.10;;;14.60;91.50;;;;;;5117468;27;20050;-68
2023/05/17 11:56:34;;;;;;;15.02;1.35;;;14.00;89.50;;;;;;5135190;27;20047;-70
2023/05/17 11:59:01;;;;;;;7.72;1.00;;;13.60;88.80;;;;;;5135190;27;20043;-67
2023/05/17 12:01:27;;;;;;;9.15;1.00;;;13.60;90.90;;;;;;5135212;27;20047;-70
2023/05/17 12:03:58;;;;;;;6.63;0.60;;;13.40;91.00;;;;;;5134839;27;20047;-71
2023/05/17 12:06:24;;;;;;;5.70;0.82;;;13.60;90.80;;;;;;5100041;27;20050;-71
2023/05/17 12:08:50;;;;;;;9.18;0.70;;;13.70;91.50;;;;;;5116521;27;20076;-72
2023/05/17 12:11:17;;;;;;;4.80;0.90;;;14.00;90.60;;;;;;5099673;27;20448;-70
2023/05/17 12:13:47;;;;;;;9.52;0.95;;;14.00;90.50;;;;;;5099217;27;20121;-69
2023/05/17 12:16:14;;;;;;;8.02;1.00;;;13.50;89.90;;;;;;5098815;28;20043;-70
2023/05/17 12:18:42;;;;;;;9.40;0.95;;;13.60;90.00;;;;;;5134259;27;20058;-70
2023/05/17 12:21:09;;;;;;;8.43;1.10;;;13.60;90.00;;;;;;5135016;27;20408;-70
2023/05/17 12:23:40;;;;;;;6.00;0.82;;;13.80;90.30;;;;;;5134599;27;20487;-68
2023/05/17 12:26:08;;;;;;;7.03;0.70;;;13.80;90.10;;;;;;5116614;27;20039;-70
2023/05/17 12:28:36;;;;;;;4.13;0.70;;;13.90;90.50;;;;;;5134813;27;20039;-70
2023/05/17 12:31:04;;;;;;;9.45;0.80;;;14.00;89.70;;;;;;5116705;27;20396;-70
2023/05/17 12:33:33;;;;;;;7.90;0.75;;;13.70;85.80;;;;;;5116442;27;20051;-70
2023/05/17 12:36:01;;;;;;;7.38;0.80;;;13.90;90.70;;;;;;5099037;27;20519;-69
2023/05/17 12:38:33;;;;;;;6.70;0.85;;;13.70;89.00;;;;;;5115871;27;20058;-70
2023/05/17 12:41:02;;;;;;;6.63;0.85;;;13.60;88.70;;;;;;5116051;27;20090;-70
2023/05/17 12:43:30;;;;;;;8.73;1.10;;;13.50;89.10;;;;;;5099543;27;20109;-70
2023/05/17 12:46:19;;;;;;;8.63;1.15;;;14.00;89.40;;;;;;5115490;27;20127;-69
2023/05/17 12:48:46;;;;;;;9.05;1.10;;;14.20;87.80;;;;;;5112158;28;20052;-69